x

Yucatan Basin - 120 Nm Ese Of Cozumel, Mx (42056) Wave Buoy

9:50am - Mon 22nd Sep 2014 All times are CDT. -5 hours from GMT.

  • Sig Wave height 2.0ft
  • Swell Direction
  • Peak Period 4s
  • Average Period 4s
  • Wind
    13mph, 16mph gusts
  • Sea Temp 85°f
  • Air Temp 85°f
  • Sea Pressure 1014.8mb
  •  Yucatan Basin - 120 Nm Ese Of Cozumel, Mx
  •  Yucatan Basin - 120 Nm Ese Of Cozumel, Mx

More Historic Weather Station data

Upgrade to MSW Pro to gain access to the past 30 days of data for over 8000 Wavebouys and Weather Stations around the globe.

Join Pro

Comparision Forecast

View Surf forecast
   
Mon 09/22 9:50am 2ft 4s 4s 13 16 mph 1014.8mb 85f 85f
8:50am 2ft 4s 4s 11 13 mph 1014.7mb 85f 84f
7:50am 2ft 5s 4s 9 11 mph 1013.7mb 85f 84f
6:50am 2.5ft 5s 4s 11 13 mph 1013.3mb 85f 84f
5:50am 2.5ft 5s 4s 13 16 mph 1012.7mb 85f 84f
4:50am 2.5ft 5s 4s 16 18 mph 1012.5mb 85f 84f
3:50am 2.5ft 5s 4s 16 18 mph 1012.2mb 85f 84f
2:50am 2.5ft 5s 4s 13 16 mph 1012.6mb 85f 84f
1:50am 3ft 5s 4s 13 16 mph 1012.9mb 85f 84f
12:50am 3ft 5s 4s 16 18 mph 1013.4mb 85f 84f
Sun 09/21 11:50pm 2.5ft 5s 4s 13 16 mph 1014.1mb 85f 84f
10:50pm 2.5ft 5s 4s 16 18 mph 1014.8mb 85f 83f
9:50pm 2.5ft 4s 4s 16 18 mph 1014.8mb 85f 85f
8:50pm 3ft 5s 4s 16 18 mph 1014.3mb 85f 85f
7:50pm 2.5ft 4s 4s 13 16 mph 1013.5mb 85f 85f
6:50pm 3ft 5s 4s 16 20 mph 1012.5mb 85f 83f
5:50pm 2.5ft 5s 4s 13 16 mph 1012mb 85f 85f
4:50pm 3ft 5s 4s 13 16 mph 1011.6mb 85f 85f
3:50pm 3ft 4s 4s 11 13 mph 1011.5mb 85f 85f
2:50pm 3ft 5s 4s 13 16 mph 1012.1mb 85f 85f
1:50pm 3ft 4s 4s 7
mph
1012.8mb 85f 84f
12:50pm 3ft 4s 4s 7 9 mph 1013.2mb 85f 84f
11:50am 3.5ft 4s 4s 13 16 mph 1013.7mb 85f 84f
10:50am 3ft 5s 4s 18 20 mph 1014.1mb 85f 84f
9:50am 3ft 5s 4s 18 22 mph 1013.9mb 85f 84f
8:50am 2.5ft 4s 4s 18 20 mph 1013.6mb 85f 84f
7:50am 2.5ft 4s 4s 16 20 mph 1012.9mb 85f 84f
6:50am 2.5ft 4s 4s 18 20 mph 1012.2mb 85f 83f
5:50am 2.5ft 4s 4s 16 20 mph 1011.7mb 85f 84f
4:50am 2.5ft 4s 4s 18 22 mph 1011.4mb 85f 84f
3:50am 2ft 4s 4s 18 22 mph 1011.2mb 85f 84f
2:50am 2ft 6s 3s 16 20 mph 1011.3mb 85f 84f
1:50am 2ft 6s 4s 18 20 mph 1011.5mb 85f 84f
12:50am 1.6ft 4s 4s 16 18 mph 1012.1mb 85f 84f
Sat 09/20 11:50pm 1.6ft 5s 4s 16 18 mph 1012.9mb 85f 84f
10:50pm 1.6ft 5s 4s 13 16 mph 1013.7mb 85f 84f
9:50pm 1.6ft 5s 4s 11 13 mph 1013.4mb 85f 83f
8:50pm 1.6ft 5s 4s 13
mph
1012.7mb 85f 84f
7:50pm 1.6ft 5s 4s 9 11 mph 1011.9mb 85f 84f
6:50pm 1.6ft 5s 4s 9 11 mph 1011.3mb 85f 84f
5:50pm 1.6ft 5s 4s 9
mph
1011.1mb 85f 84f
4:50pm 1.6ft 5s 4s 11
mph
1010.8mb 85f 84f
3:50pm 2ft 4s 4s 13 16 mph 1010.7mb 85f 84f
2:50pm 2ft 5s 4s 11 13 mph 1010.6mb 85f 84f
1:50pm 2ft 5s 4s 13 16 mph 1010.7mb 84f 84f
12:50pm 2ft 4s 4s 13 16 mph 1011.3mb 84f 84f
11:50am 2.5ft 4s 4s 16 18 mph 1011.9mb 84f 84f
10:50am 2.5ft 3s 3s 16 18 mph 1012.2mb 84f 84f
9:50am 2.5ft 3s 3s 18 20 mph 1012.4mb 85f 84f
8:50am 2.5ft 3s 3s 18 22 mph 1012.2mb 85f 83f
7:50am 2.5ft 3s 3s 18 20 mph 1012mb 84f 84f
6:50am 2.5ft 3s 3s 18 20 mph 1011.6mb 84f 84f
5:50am 2ft 3s 3s 20 22 mph 1011.1mb 84f 83f
4:50am 2ft 3s 3s 18 20 mph 1011mb 84f 83f
3:50am 1.6ft 4s 3s 13 18 mph 1011mb 84f 83f
2:50am 1.6ft 4s 3s 16 18 mph 1011.1mb 84f 84f
1:50am 1.6ft 5s 3s 16 18 mph 1011.8mb 84f 84f
12:50am 1.6ft 4s 3s 13 16 mph 1012.5mb 85f 82f
Fri 09/19 11:50pm 1.6ft 5s 4s 13 16 mph 1013mb 85f 84f
10:50pm 1.3ft 4s 4s 16 18 mph 1013mb 85f 84f
9:50pm 1.3ft 5s 3s 13 16 mph 1012.9mb 85f 84f
8:50pm 1.3ft 4s 3s 13
mph
1012.4mb 85f 84f
7:50pm 1.3ft 5s 3s 13
mph
1011.8mb 85f 84f
6:50pm 1.3ft 4s 3s 11 13 mph 1011.2mb 85f 84f
5:50pm 1.3ft 4s 3s 11 13 mph 1011mb 84f 84f
4:50pm 1.3ft 4s 3s 11 13 mph 1011mb 84f 84f
3:50pm 1.6ft 3s 3s 13 16 mph 1010.5mb 84f 84f
2:50pm 1.6ft 3s 3s 13 16 mph 1011.1mb 84f 84f
1:50pm 1.6ft 3s 3s 13 16 mph 1011.8mb 84f 84f
12:50pm 1.6ft 3s 3s 16 18 mph 1012.5mb 85f 84f
11:50am 1.6ft 3s 3s 16 18 mph 1013.1mb 84f 84f
10:50am 1.6ft 2s 3s 16 18 mph 1013.4mb 84f 84f
9:50am 1.3ft 7s 3s 13 18 mph 1013.4mb 84f 84f
8:50am 1ft 11s 3s 16 18 mph 1013.2mb 84f 83f
7:50am 1ft 14s 4s 16 18 mph 1012.9mb 84f 84f
6:50am 1ft 12s 4s 13 16 mph 1012.5mb 84f 83f
5:50am 1ft 5s 4s 11 13 mph 1012.1mb 84f 83f
4:50am 1ft 5s 4s 9 11 mph 1011.6mb 84f 83f
3:50am 1ft 5s 4s 11
mph
1011.3mb 84f 83f
2:50am 1ft 5s 4s 11 13 mph 1011.9mb 84f 83f
1:50am 1ft 6s 4s 11 13 mph 1012.4mb 84f 83f
12:50am 1ft 6s 4s 9 11 mph 1013.1mb 84f 83f
Thu 09/18 11:50pm 1.3ft 24s 4s 11 13 mph 1013.2mb 84f 83f
10:50pm 1ft 6s 4s 11 13 mph 1013.2mb 84f 83f
9:50pm 1ft 6s 3s 13 16 mph 1013mb 85f 83f
8:50pm 1ft 6s 4s 11 13 mph 1012.4mb 85f 84f
7:50pm 1ft 7s 4s 11 13 mph 1012mb 85f 84f
6:50pm 1ft 7s 4s 9 11 mph 1011.7mb 85f 83f
5:50pm 1ft 6s 4s 9 11 mph 1011.5mb 85f 84f
4:50pm 1ft 7s 4s 9 11 mph 1011.3mb 85f 84f